createdAt,value
2022-08-31T00:02:52.794Z,1.9
2022-08-31T00:08:36.563Z,2.1
2022-08-31T00:14:19.986Z,2.1
2022-08-31T00:20:03.331Z,2.4
2022-08-31T00:25:48.118Z,1.6
2022-08-31T00:31:33.152Z,1.4
2022-08-31T00:37:17.759Z,2.5
2022-08-31T00:43:02.762Z,2.2
2022-08-31T00:48:54.048Z,1.9
2022-08-31T00:54:41.415Z,1.9
2022-08-31T01:00:26.477Z,1.7
2022-08-31T01:06:11.281Z,2
2022-08-31T01:11:54.823Z,2
2022-08-31T01:17:38.807Z,2.3
2022-08-31T01:23:25.473Z,2.2
2022-08-31T01:29:09.438Z,1.5
2022-08-31T01:34:54.116Z,1.9
2022-08-31T01:40:40.833Z,2.3
2022-08-31T01:46:26.220Z,2.7
2022-08-31T01:52:11.106Z,3.4
2022-08-31T01:57:54.727Z,2.5
2022-08-31T02:03:38.086Z,1.9
2022-08-31T02:09:22.110Z,3
2022-08-31T02:15:07.527Z,3.8
2022-08-31T02:20:51.439Z,3.2
2022-08-31T02:26:34.929Z,2.1
2022-08-31T02:32:22.994Z,1.9
2022-08-31T02:38:07.952Z,2.6
2022-08-31T02:43:52.640Z,2.3
2022-08-31T02:49:41.273Z,2.5
2022-08-31T02:55:26.816Z,3.1
2022-08-31T03:01:11.071Z,3.1
2022-08-31T03:06:54.792Z,2.2
2022-08-31T03:12:38.946Z,2.1
2022-08-31T03:18:22.318Z,2.2
2022-08-31T03:24:07.899Z,2
2022-08-31T03:29:52.262Z,2.9
2022-08-31T03:35:35.882Z,2.7
2022-08-31T03:41:22.456Z,1.8
2022-08-31T03:47:07.725Z,2
2022-08-31T03:52:52.870Z,1.7
2022-08-31T03:58:36.202Z,1.9
2022-08-31T04:04:19.886Z,3.5
2022-08-31T04:10:03.289Z,1.7
2022-08-31T04:15:48.048Z,1.9
2022-08-31T04:21:32.658Z,2.3
2022-08-31T04:27:16.455Z,2.7
2022-08-31T04:32:59.788Z,1.8
2022-08-31T04:38:46.275Z,2.2
2022-08-31T04:44:30.943Z,2.4
2022-08-31T04:50:16.391Z,1.9
2022-08-31T04:56:01.222Z,1.8
2022-08-31T05:01:47.038Z,2.9
2022-08-31T05:07:32.098Z,2.7
2022-08-31T05:13:17.083Z,2
2022-08-31T05:19:00.850Z,3.9
2022-08-31T05:24:44.271Z,3.8
2022-08-31T05:30:27.883Z,4.4
2022-08-31T05:36:13.620Z,3.8
2022-08-31T05:41:58.379Z,4.1
2022-08-31T05:47:43.107Z,3.4
2022-08-31T05:53:27.690Z,7.7
2022-08-31T05:59:11.371Z,5
2022-08-31T06:04:58.943Z,5.6
2022-08-31T06:10:42.358Z,3.7
2022-08-31T06:16:26.365Z,6.3
2022-08-31T06:22:10.028Z,4
2022-08-31T06:27:53.490Z,5.2
2022-08-31T06:33:38.666Z,6.3
2022-08-31T06:39:26.502Z,6.3
2022-08-31T06:45:14.937Z,6.5
2022-08-31T06:51:10.979Z,7
2022-08-31T06:57:01.695Z,6.3
2022-08-31T07:02:58.425Z,7.8
2022-08-31T07:08:46.102Z,6.2
2022-08-31T07:14:32.197Z,7.3
2022-08-31T07:20:25.370Z,6.7
2022-08-31T07:26:15.633Z,6.9
2022-08-31T07:32:04.459Z,5.1
2022-08-31T07:37:49.374Z,6
2022-08-31T07:43:41.701Z,5.6
2022-08-31T07:49:38.951Z,6.6
2022-08-31T07:55:29.362Z,7.1
2022-08-31T08:01:15.999Z,8.1
2022-08-31T08:07:12.869Z,5.8
2022-08-31T08:13:05.304Z,6.9
2022-08-31T08:19:01.439Z,4.7
2022-08-31T08:24:54.788Z,5.9
2022-08-31T08:30:47.766Z,6.3
2022-08-31T08:36:35.617Z,5.7
2022-08-31T08:42:27.399Z,4.7
2022-08-31T08:48:23.104Z,5.1
2022-08-31T08:54:18.520Z,5
2022-08-31T09:00:09.503Z,8.9
2022-08-31T09:06:03.154Z,6.2
2022-08-31T09:11:58.178Z,6.1
2022-08-31T09:17:51.077Z,6.8
2022-08-31T09:23:47.130Z,7
2022-08-31T09:29:37.141Z,5.3
2022-08-31T09:35:36.317Z,5
2022-08-31T09:41:37.889Z,8.4
2022-08-31T09:47:40.195Z,5.9
2022-08-31T09:53:33.330Z,5.7
2022-08-31T09:59:23.588Z,7.3
2022-08-31T10:05:17.481Z,6.4
2022-08-31T10:11:08.194Z,6.7
2022-08-31T10:16:58.628Z,4.6
2022-08-31T10:23:01.317Z,4.8
2022-08-31T10:28:51.187Z,4.7
2022-08-31T10:34:36.289Z,6.1
2022-08-31T10:40:25.733Z,4
2022-08-31T10:46:09.512Z,4.2
2022-08-31T10:51:57.918Z,4.4
2022-08-31T10:57:44.326Z,5.3
2022-08-31T11:03:36.979Z,6.4
2022-08-31T11:09:33.290Z,5.5
2022-08-31T11:15:36.189Z,6.3
2022-08-31T11:21:36.275Z,6.1
2022-08-31T11:27:30.878Z,4.7
2022-08-31T11:33:22.687Z,4.9
2022-08-31T11:39:28.045Z,4.5
2022-08-31T11:45:40.094Z,6.6
2022-08-31T11:51:51.394Z,4.7
2022-08-31T11:57:47.418Z,5
2022-08-31T12:03:50.874Z,6.7
2022-08-31T12:09:55.804Z,4.1
2022-08-31T12:15:52.886Z,5
2022-08-31T12:21:53.341Z,6.1
2022-08-31T12:27:48.890Z,4.2
2022-08-31T12:33:42.383Z,3.8
2022-08-31T12:39:29.658Z,6.7
2022-08-31T12:45:17.494Z,3.3
2022-08-31T12:51:11.725Z,7.4
2022-08-31T12:57:26.810Z,5
2022-08-31T13:03:29.867Z,5.5
2022-08-31T13:09:39.371Z,4.5
2022-08-31T13:15:37.367Z,5
2022-08-31T13:21:26.330Z,5
2022-08-31T13:27:23.485Z,5.6
2022-08-31T13:33:24.170Z,10.1
2022-08-31T13:39:22.095Z,6.1
2022-08-31T13:45:17.650Z,4.6
2022-08-31T13:51:08.897Z,6.2
2022-08-31T13:56:58.211Z,6.6
2022-08-31T14:02:49.428Z,4.4
2022-08-31T14:08:56.277Z,4.7
2022-08-31T14:14:46.258Z,4.6
2022-08-31T14:21:10.190Z,6.3
2022-08-31T14:26:51.305Z,7.3
2022-08-31T14:32:34.691Z,4.6
2022-08-31T14:38:18.360Z,5.8
2022-08-31T14:44:03.896Z,4.8
2022-08-31T14:49:47.475Z,4.9
2022-08-31T14:55:31.361Z,4.7
2022-08-31T15:01:15.645Z,4
2022-08-31T15:06:59.660Z,4.3
2022-08-31T15:12:44.071Z,4.6
2022-08-31T15:18:27.504Z,5.5
2022-08-31T15:24:20.422Z,3.6
2022-08-31T15:30:23.787Z,3.7
2022-08-31T15:36:25.518Z,3.7
2022-08-31T15:42:12.628Z,3.4
2022-08-31T15:47:55.970Z,3
2022-08-31T15:53:40.258Z,2.7
2022-08-31T15:59:23.571Z,2.5
2022-08-31T16:05:06.850Z,3
2022-08-31T16:10:50.342Z,2.8
2022-08-31T16:16:36.207Z,3.6
2022-08-31T16:22:20.127Z,3.5
2022-08-31T16:28:03.882Z,3.8
2022-08-31T16:33:47.566Z,3.5
2022-08-31T16:39:31.245Z,2.9
2022-08-31T16:45:16.078Z,2.9
2022-08-31T16:50:59.607Z,3
2022-08-31T16:56:53.182Z,3.1
2022-08-31T17:02:36.910Z,3.2
2022-08-31T17:08:20.703Z,3.1
2022-08-31T17:14:06.267Z,3.7
2022-08-31T17:19:50.508Z,2.3
2022-08-31T17:25:34.464Z,2.2
2022-08-31T17:31:18.108Z,2.6
2022-08-31T17:37:03.580Z,3.7
2022-08-31T17:42:46.702Z,5
2022-08-31T17:48:31.362Z,2.9
2022-08-31T17:54:16.946Z,3.4
2022-08-31T18:00:00.590Z,2.7
2022-08-31T18:05:46.273Z,3.3
2022-08-31T18:11:30.125Z,3.1
2022-08-31T18:17:14.819Z,3.6
2022-08-31T18:22:58.171Z,3.4
2022-08-31T18:28:41.328Z,2.8
2022-08-31T18:34:25.398Z,3.6
2022-08-31T18:40:11.540Z,3.5
2022-08-31T18:45:54.948Z,4.6
2022-08-31T18:51:38.938Z,3.5
2022-08-31T18:57:23.284Z,4.1
2022-08-31T19:03:07.126Z,3.1
2022-08-31T19:08:50.928Z,3.8
2022-08-31T19:14:38.962Z,4.4
2022-08-31T19:20:22.254Z,4
2022-08-31T19:26:05.609Z,3
2022-08-31T19:31:50.701Z,4.9
2022-08-31T19:37:34.834Z,4.1
2022-08-31T19:43:54.631Z,3.6
2022-08-31T19:49:21.268Z,5.2
2022-08-31T19:55:11.299Z,4.6
2022-08-31T20:01:18.175Z,6.1
2022-08-31T20:07:02.826Z,4.5
2022-08-31T20:12:48.359Z,3.9
2022-08-31T20:18:36.285Z,4.2
2022-08-31T20:24:22.926Z,6
2022-08-31T20:30:08.326Z,3.7
2022-08-31T20:35:51.654Z,4.5
2022-08-31T20:41:39.596Z,4.1
2022-08-31T20:47:23.193Z,5.1
2022-08-31T20:53:06.681Z,5.1
2022-08-31T20:58:51.308Z,4.1
2022-08-31T21:04:37.031Z,4.2
2022-08-31T21:10:37.259Z,3.6
2022-08-31T21:16:21.831Z,4.4
2022-08-31T21:22:06.650Z,4.5
2022-08-31T21:27:50.333Z,5.9
2022-08-31T21:33:33.945Z,3.9
2022-08-31T21:39:18.393Z,5
2022-08-31T21:45:01.751Z,3.6
2022-08-31T21:50:45.557Z,3.9
2022-08-31T21:56:30.394Z,3.5
2022-08-31T22:02:14.384Z,4.6
2022-08-31T22:07:57.652Z,5.1
2022-08-31T22:13:41.302Z,4
2022-08-31T22:19:25.547Z,3.2
2022-08-31T22:25:10.268Z,3.5
2022-08-31T22:30:54.596Z,4.5
2022-08-31T22:36:39.579Z,3.5
2022-08-31T22:42:25.990Z,4.1
2022-08-31T22:48:09.506Z,4.1
2022-08-31T22:53:53.350Z,3.5
2022-08-31T22:59:37.139Z,4.3
2022-08-31T23:05:21.427Z,3.6
2022-08-31T23:11:04.721Z,3.4
2022-08-31T23:16:49.735Z,4.1
2022-08-31T23:22:33.299Z,3.8
2022-08-31T23:28:17.455Z,3.6
2022-08-31T23:34:01.104Z,3.7
2022-08-31T23:39:45.298Z,4.1
2022-08-31T23:45:28.834Z,4
2022-08-31T23:51:14.093Z,3.7
2022-08-31T23:56:57.502Z,3.6
